Time;durP1;ratioP1;P1;durP2;ratioP2;P2;SDS_P1;SDS_P2;PMS_P1;PMS_P2;Temp;Humidity;BMP_temperature;BMP_pressure;BME280_temperature;BME280_humidity;BME280_pressure;Samples;Min_cycle;Max_cycle;Signal;HPM_P1;HPM_P2
2023/12/29 00:01:41;;;;;;;39.73;20.10;;;;;;;;;;10392424;28;20039;-78
2023/12/29 00:06:42;;;;;;;34.13;18.60;;;;;;;;;;10408534;28;20042;-77
2023/12/29 00:11:44;;;;;;;36.10;19.03;;;;;;;;;;10390901;28;20044;-78
2023/12/29 00:16:45;;;;;;;33.47;17.63;;;;;;;;;;10402931;28;20152;-78
2023/12/29 00:21:45;;;;;;;32.90;16.60;;;;;;;;;;10387538;28;20054;-78
2023/12/29 00:26:47;;;;;;;32.03;16.93;;;;;;;;;;10390300;28;20087;-78
2023/12/29 00:31:48;;;;;;;27.17;16.07;;;;;;;;;;10387390;28;20034;-80
2023/12/29 00:36:49;;;;;;;31.17;17.37;;;;;;;;;;10379741;28;20034;-80
2023/12/29 00:41:50;;;;;;;28.07;16.33;;;;;;;;;;10380041;28;20509;-77
2023/12/29 00:46:51;;;;;;;27.33;16.43;;;;;;;;;;10392713;28;20041;-79
2023/12/29 00:51:53;;;;;;;26.27;15.10;;;;;;;;;;10406575;28;20034;-79
2023/12/29 00:56:54;;;;;;;29.67;17.33;;;;;;;;;;10368375;28;20235;-80
2023/12/29 01:01:55;;;;;;;27.13;15.63;;;;;;;;;;10374206;28;20386;-79
2023/12/29 01:06:56;;;;;;;27.87;16.43;;;;;;;;;;10384673;28;20391;-78
2023/12/29 01:11:57;;;;;;;28.73;16.70;;;;;;;;;;10374012;28;20042;-77
2023/12/29 01:16:58;;;;;;;30.93;16.93;;;;;;;;;;10400239;28;20768;-77
2023/12/29 01:21:59;;;;;;;35.37;20.30;;;;;;;;;;10405915;28;20047;-77
2023/12/29 01:27:00;;;;;;;33.23;17.27;;;;;;;;;;10375349;28;20046;-78
2023/12/29 01:32:03;;;;;;;27.83;16.43;;;;;;;;;;10397848;28;20049;-77
2023/12/29 01:37:04;;;;;;;31.00;17.37;;;;;;;;;;10366503;28;20044;-80
2023/12/29 01:42:05;;;;;;;31.17;17.17;;;;;;;;;;10383109;28;20492;-79
2023/12/29 01:47:12;;;;;;;28.37;16.13;;;;;;;;;;10367177;28;20047;-79
2023/12/29 01:52:14;;;;;;;26.17;15.37;;;;;;;;;;10373348;28;20029;-78
2023/12/29 01:57:15;;;;;;;27.47;14.47;;;;;;;;;;10374545;28;20037;-78
2023/12/29 02:02:16;;;;;;;25.50;12.93;;;;;;;;;;10371901;28;20030;-78
2023/12/29 02:07:23;;;;;;;25.43;14.30;;;;;;;;;;10399838;28;20041;-77
2023/12/29 02:12:24;;;;;;;28.43;15.13;;;;;;;;;;10378322;22;20057;-78
2023/12/29 02:17:32;;;;;;;25.90;14.03;;;;;;;;;;10350392;28;20382;-78
2023/12/29 02:22:32;;;;;;;25.87;15.10;;;;;;;;;;10362587;28;20045;-77
2023/12/29 02:27:47;;;;;;;30.60;17.60;;;;;;;;;;10357894;28;20064;-78
2023/12/29 02:32:48;;;;;;;26.63;14.47;;;;;;;;;;10337397;28;20031;-79
2023/12/29 02:37:50;;;;;;;28.97;16.53;;;;;;;;;;10325580;28;20385;-77
2023/12/29 02:42:57;;;;;;;25.83;15.00;;;;;;;;;;10337501;28;20038;-77
2023/12/29 02:48:04;;;;;;;29.33;18.13;;;;;;;;;;10332343;28;20057;-78
2023/12/29 02:53:05;;;;;;;27.63;16.20;;;;;;;;;;10327389;28;20034;-77
2023/12/29 02:58:06;;;;;;;28.20;15.83;;;;;;;;;;10328308;28;20030;-78
2023/12/29 03:03:07;;;;;;;27.23;13.53;;;;;;;;;;10339565;28;20038;-78
2023/12/29 03:08:08;;;;;;;20.23;11.60;;;;;;;;;;10359707;28;20781;-80
2023/12/29 03:13:09;;;;;;;21.87;12.43;;;;;;;;;;10338530;28;20103;-78
2023/12/29 03:18:10;;;;;;;22.63;12.40;;;;;;;;;;10338414;28;20030;-78
2023/12/29 03:23:11;;;;;;;23.90;14.20;;;;;;;;;;10360361;28;20030;-78
2023/12/29 03:28:12;;;;;;;22.87;12.33;;;;;;;;;;10340173;28;20049;-78
2023/12/29 03:33:15;;;;;;;23.60;13.50;;;;;;;;;;10336772;28;20422;-77
2023/12/29 03:38:16;;;;;;;22.27;12.87;;;;;;;;;;10354843;28;20394;-79
2023/12/29 03:43:17;;;;;;;19.03;11.37;;;;;;;;;;10339284;28;20036;-78
2023/12/29 03:48:18;;;;;;;17.90;10.63;;;;;;;;;;10339839;28;20045;-77
2023/12/29 03:53:19;;;;;;;20.37;11.63;;;;;;;;;;10327850;28;20061;-77
2023/12/29 03:58:20;;;;;;;18.90;11.37;;;;;;;;;;10356290;28;20473;-77
2023/12/29 04:03:21;;;;;;;21.53;11.47;;;;;;;;;;10350899;28;20093;-80
2023/12/29 04:08:22;;;;;;;21.37;12.03;;;;;;;;;;10365445;28;20034;-78
2023/12/29 04:13:23;;;;;;;22.77;12.67;;;;;;;;;;10327067;28;20050;-78
2023/12/29 04:18:25;;;;;;;23.73;12.93;;;;;;;;;;10336525;28;20528;-79
2023/12/29 04:23:26;;;;;;;17.93;10.50;;;;;;;;;;10354559;28;20179;-77
2023/12/29 04:28:27;;;;;;;21.17;11.97;;;;;;;;;;10305371;28;20447;-78
2023/12/29 04:33:28;;;;;;;17.20;10.07;;;;;;;;;;10327256;28;20038;-77
2023/12/29 04:38:29;;;;;;;19.33;10.23;;;;;;;;;;10327402;28;20034;-78
2023/12/29 04:43:30;;;;;;;17.13;9.30;;;;;;;;;;10314723;28;20483;-77
2023/12/29 04:48:31;;;;;;;16.87;9.57;;;;;;;;;;10317164;28;20789;-77
2023/12/29 04:53:32;;;;;;;16.60;9.70;;;;;;;;;;10361480;28;20085;-78
2023/12/29 04:58:33;;;;;;;18.27;10.20;;;;;;;;;;10354036;28;20609;-78
2023/12/29 05:03:34;;;;;;;16.33;8.90;;;;;;;;;;10326068;28;20064;-77
2023/12/29 05:08:35;;;;;;;16.87;9.67;;;;;;;;;;10343335;28;20050;-80
2023/12/29 05:13:36;;;;;;;16.37;8.80;;;;;;;;;;10319853;28;20061;-78
2023/12/29 05:18:37;;;;;;;20.17;10.93;;;;;;;;;;10350157;28;20108;-78
2023/12/29 05:23:46;;;;;;;16.60;10.03;;;;;;;;;;10351518;28;20050;-79
2023/12/29 05:28:47;;;;;;;16.40;9.33;;;;;;;;;;10343932;28;20068;-79
2023/12/29 05:33:49;;;;;;;17.90;10.10;;;;;;;;;;10314071;28;20040;-78
2023/12/29 05:38:50;;;;;;;17.13;9.27;;;;;;;;;;10337662;28;20047;-77
2023/12/29 05:43:51;;;;;;;17.70;9.80;;;;;;;;;;10354564;28;20042;-77
2023/12/29 05:48:52;;;;;;;19.53;10.50;;;;;;;;;;10338648;28;20145;-79
2023/12/29 05:53:54;;;;;;;19.13;10.63;;;;;;;;;;10349912;28;20073;-78
2023/12/29 05:58:55;;;;;;;17.57;10.23;;;;;;;;;;10349693;28;20034;-78
2023/12/29 06:03:56;;;;;;;20.40;11.00;;;;;;;;;;10310924;28;20398;-78
2023/12/29 06:08:57;;;;;;;20.90;11.20;;;;;;;;;;10332852;28;20046;-79
2023/12/29 06:13:58;;;;;;;20.30;10.70;;;;;;;;;;10349817;28;20684;-78
2023/12/29 06:19:00;;;;;;;24.33;12.17;;;;;;;;;;10352844;28;20142;-78
2023/12/29 06:24:00;;;;;;;24.23;11.77;;;;;;;;;;10344021;28;20393;-78
2023/12/29 06:29:01;;;;;;;18.63;9.83;;;;;;;;;;10345312;28;20042;-79
2023/12/29 06:34:03;;;;;;;18.73;10.30;;;;;;;;;;10316276;28;20038;-78
2023/12/29 06:39:05;;;;;;;18.83;10.87;;;;;;;;;;10332039;28;20425;-79
2023/12/29 06:44:06;;;;;;;17.93;9.83;;;;;;;;;;10311829;28;20168;-77
2023/12/29 06:49:13;;;;;;;17.50;9.33;;;;;;;;;;10311192;28;20576;-77
2023/12/29 06:54:14;;;;;;;15.83;8.60;;;;;;;;;;10299105;28;20510;-78
2023/12/29 06:59:16;;;;;;;22.97;11.23;;;;;;;;;;10300527;28;20037;-77
2023/12/29 07:04:17;;;;;;;19.00;10.20;;;;;;;;;;10313253;28;20439;-78
2023/12/29 07:09:18;;;;;;;19.60;10.33;;;;;;;;;;10310585;28;20189;-79
2023/12/29 07:14:19;;;;;;;18.43;10.03;;;;;;;;;;10316284;28;20466;-80
2023/12/29 07:19:20;;;;;;;18.90;9.70;;;;;;;;;;10336600;28;20084;-79
2023/12/29 07:24:21;;;;;;;18.87;10.57;;;;;;;;;;10352265;28;20034;-81
2023/12/29 07:29:22;;;;;;;17.77;10.57;;;;;;;;;;10331777;28;20034;-81
2023/12/29 07:34:23;;;;;;;20.67;10.80;;;;;;;;;;10342124;28;20113;-78
2023/12/29 07:39:25;;;;;;;17.03;10.00;;;;;;;;;;10357268;28;20041;-79
2023/12/29 07:44:26;;;;;;;16.33;9.83;;;;;;;;;;10356533;28;20034;-80
2023/12/29 07:49:27;;;;;;;15.60;8.83;;;;;;;;;;10346096;28;20060;-80
2023/12/29 07:54:28;;;;;;;19.50;9.07;;;;;;;;;;10324838;28;20037;-80
2023/12/29 07:59:29;;;;;;;14.17;7.77;;;;;;;;;;10323237;28;20045;-79
2023/12/29 08:04:30;;;;;;;15.10;7.67;;;;;;;;;;10320898;28;20034;-80
2023/12/29 08:09:31;;;;;;;14.77;7.80;;;;;;;;;;10319039;28;20116;-81
2023/12/29 08:14:32;;;;;;;13.27;7.77;;;;;;;;;;10347696;28;20030;-82
2023/12/29 08:19:40;;;;;;;13.30;6.80;;;;;;;;;;10332884;28;20048;-82
2023/12/29 08:24:44;;;;;;;13.77;7.73;;;;;;;;;;10344141;28;20049;-80
2023/12/29 08:29:45;;;;;;;13.67;7.30;;;;;;;;;;10358279;28;20114;-78
2023/12/29 08:34:46;;;;;;;14.97;7.77;;;;;;;;;;10341750;28;20093;-77
2023/12/29 08:39:48;;;;;;;16.83;8.20;;;;;;;;;;10320440;28;20030;-78
2023/12/29 08:44:49;;;;;;;14.93;7.83;;;;;;;;;;10312004;28;20042;-77
2023/12/29 08:49:57;;;;;;;14.47;7.30;;;;;;;;;;10319801;28;20050;-79
2023/12/29 08:54:58;;;;;;;15.13;7.17;;;;;;;;;;10320984;28;20030;-77
2023/12/29 08:59:59;;;;;;;15.27;8.20;;;;;;;;;;10320286;28;20041;-78
2023/12/29 09:05:00;;;;;;;15.50;8.00;;;;;;;;;;10348527;28;20080;-78
2023/12/29 09:10:21;;;;;;;27.60;14.93;;;;;;;;;;10362036;28;20054;-79
2023/12/29 09:15:29;;;;;;;19.40;8.80;;;;;;;;;;10316708;28;20027;-78
2023/12/29 09:26:12;;;;;;;17.07;8.77;;;;;;;;;;10351212;28;20049;-78
2023/12/29 09:31:13;;;;;;;17.33;8.97;;;;;;;;;;10350393;28;20029;-78
2023/12/29 09:36:14;;;;;;;15.27;7.80;;;;;;;;;;10321704;28;20029;-79
2023/12/29 09:41:16;;;;;;;13.40;7.10;;;;;;;;;;10329092;28;20383;-80
2023/12/29 09:46:23;;;;;;;14.37;8.23;;;;;;;;;;10327133;28;20081;-79
2023/12/29 09:51:24;;;;;;;19.23;9.53;;;;;;;;;;10308772;28;20042;-79
2023/12/29 09:56:25;;;;;;;14.87;7.50;;;;;;;;;;10324630;28;20513;-78
2023/12/29 10:01:29;;;;;;;13.70;8.43;;;;;;;;;;10345923;28;20071;-81
2023/12/29 10:06:32;;;;;;;17.40;9.10;;;;;;;;;;10346415;28;20042;-80
2023/12/29 10:11:49;;;;;;;16.03;8.53;;;;;;;;;;10323314;28;21068;-77
2023/12/29 10:16:57;;;;;;;15.17;8.23;;;;;;;;;;10321185;28;20141;-79
2023/12/29 10:22:03;;;;;;;17.93;9.60;;;;;;;;;;10328909;28;20065;-80
2023/12/29 10:27:05;;;;;;;15.67;7.90;;;;;;;;;;10316249;28;20158;-79
2023/12/29 10:32:06;;;;;;;12.70;7.23;;;;;;;;;;10317985;28;20030;-77
2023/12/29 10:37:13;;;;;;;12.63;6.93;;;;;;;;;;10309026;28;20130;-78
2023/12/29 10:42:14;;;;;;;15.35;8.05;;;;;;;;;;10315481;28;20672;-81
2023/12/29 10:47:16;;;;;;;13.13;7.65;;;;;;;;;;10313422;28;20074;-78
2023/12/29 10:52:17;;;;;;;10.50;6.00;;;;;;;;;;10307756;28;20490;-82
2023/12/29 10:57:18;;;;;;;12.48;7.07;;;;;;;;;;10312709;28;20113;-81
2023/12/29 11:02:19;;;;;;;13.13;6.75;;;;;;;;;;10310468;28;20398;-79
2023/12/29 11:07:36;;;;;;;11.40;6.50;;;;;;;;;;10322820;28;20038;-78
2023/12/29 11:12:45;;;;;;;13.75;6.80;;;;;;;;;;10331909;28;20058;-82
2023/12/29 11:17:49;;;;;;;12.43;7.40;;;;;;;;;;10333545;28;20023;-79
2023/12/29 11:22:50;;;;;;;14.55;7.95;;;;;;;;;;10325464;28;20041;-78
2023/12/29 11:27:52;;;;;;;12.15;6.78;;;;;;;;;;10338678;28;20049;-81
2023/12/29 11:33:00;;;;;;;11.02;6.05;;;;;;;;;;10368331;22;20081;-79
2023/12/29 11:38:04;;;;;;;13.02;7.22;;;;;;;;;;10284573;28;20046;-78
2023/12/29 11:43:11;;;;;;;12.68;6.65;;;;;;;;;;10282145;28;20023;-78
2023/12/29 11:48:12;;;;;;;13.25;7.00;;;;;;;;;;10274708;28;20049;-78
2023/12/29 11:53:32;;;;;;;12.15;6.95;;;;;;;;;;10286465;28;20038;-83
2023/12/29 11:58:33;;;;;;;13.60;7.13;;;;;;;;;;10269846;28;20038;-79
2023/12/29 12:03:46;;;;;;;12.35;7.03;;;;;;;;;;10286954;28;20045;-78
2023/12/29 12:08:47;;;;;;;14.00;6.60;;;;;;;;;;10284855;28;20039;-77
2023/12/29 12:13:48;;;;;;;15.20;7.28;;;;;;;;;;10277139;28;20037;-82
2023/12/29 12:18:49;;;;;;;12.50;6.93;;;;;;;;;;10286647;28;20101;-77
2023/12/29 12:23:52;;;;;;;15.15;7.93;;;;;;;;;;10285253;28;20031;-78
2023/12/29 12:28:54;;;;;;;14.75;7.30;;;;;;;;;;10259374;28;20053;-79
2023/12/29 12:33:56;;;;;;;13.05;6.75;;;;;;;;;;10256878;28;20786;-76
2023/12/29 12:38:58;;;;;;;11.50;6.32;;;;;;;;;;10313345;28;20026;-77
2023/12/29 12:44:04;;;;;;;9.67;5.20;;;;;;;;;;10332361;28;20030;-79
2023/12/29 12:49:06;;;;;;;10.70;6.28;;;;;;;;;;10324562;28;21476;-79
2023/12/29 12:54:19;;;;;;;9.70;5.57;;;;;;;;;;10314790;28;20814;-79
2023/12/29 12:59:22;;;;;;;11.88;5.32;;;;;;;;;;10297120;28;20038;-78
2023/12/29 13:04:23;;;;;;;9.47;5.23;;;;;;;;;;10322103;28;20126;-80
2023/12/29 13:09:24;;;;;;;9.32;5.43;;;;;;;;;;10317756;28;20744;-78
2023/12/29 13:14:25;;;;;;;12.23;5.80;;;;;;;;;;10322014;28;20037;-78
2023/12/29 13:19:27;;;;;;;14.63;7.38;;;;;;;;;;10334334;28;20044;-81
2023/12/29 13:24:29;;;;;;;10.57;5.80;;;;;;;;;;10337785;28;20043;-80
2023/12/29 13:29:30;;;;;;;11.03;5.47;;;;;;;;;;10321683;28;20038;-78
2023/12/29 13:34:39;;;;;;;16.47;7.43;;;;;;;;;;10305740;28;20061;-81
2023/12/29 13:39:43;;;;;;;15.27;6.73;;;;;;;;;;10324717;28;20026;-79
2023/12/29 13:44:45;;;;;;;14.03;7.00;;;;;;;;;;10314387;28;20084;-79
2023/12/29 13:49:48;;;;;;;15.80;7.40;;;;;;;;;;10311471;28;20053;-79
2023/12/29 13:54:56;;;;;;;19.03;9.03;;;;;;;;;;10319625;28;20174;-78
2023/12/29 14:00:16;;;;;;;16.80;8.73;;;;;;;;;;10321284;28;20038;-78
2023/12/29 14:05:19;;;;;;;17.40;8.40;;;;;;;;;;10303141;28;20049;-80
2023/12/29 14:10:27;;;;;;;16.70;8.60;;;;;;;;;;10314734;28;20042;-77
2023/12/29 14:15:28;;;;;;;20.60;10.67;;;;;;;;;;10315035;28;20038;-79
2023/12/29 14:20:35;;;;;;;24.27;11.47;;;;;;;;;;10321622;28;20084;-79
2023/12/29 14:25:37;;;;;;;22.10;11.23;;;;;;;;;;10315001;28;20504;-79
2023/12/29 14:30:38;;;;;;;18.77;9.97;;;;;;;;;;10312538;28;20113;-79
2023/12/29 14:35:39;;;;;;;21.83;10.33;;;;;;;;;;10311939;28;20066;-79
2023/12/29 14:40:40;;;;;;;20.30;11.37;;;;;;;;;;10327402;28;20066;-80
2023/12/29 14:45:41;;;;;;;23.60;13.00;;;;;;;;;;10311859;28;20127;-80
2023/12/29 14:50:45;;;;;;;20.10;9.53;;;;;;;;;;10316544;28;20165;-78
2023/12/29 14:55:46;;;;;;;22.13;11.27;;;;;;;;;;10319807;28;20089;-80
2023/12/29 15:00:47;;;;;;;23.37;11.30;;;;;;;;;;10319711;28;20038;-79
2023/12/29 15:05:48;;;;;;;24.77;13.17;;;;;;;;;;10316281;28;20081;-79
2023/12/29 15:10:49;;;;;;;19.70;11.23;;;;;;;;;;10305736;28;20082;-79
2023/12/29 15:15:50;;;;;;;20.70;9.97;;;;;;;;;;10315923;28;20502;-79
2023/12/29 15:20:51;;;;;;;23.30;11.30;;;;;;;;;;10329887;28;20026;-78
2023/12/29 15:25:52;;;;;;;17.77;9.50;;;;;;;;;;10325638;28;20045;-81
2023/12/29 15:30:53;;;;;;;20.50;10.53;;;;;;;;;;10302898;28;20035;-80
2023/12/29 15:36:07;;;;;;;18.80;10.23;;;;;;;;;;10320263;28;20050;-80
2023/12/29 15:41:08;;;;;;;26.07;11.77;;;;;;;;;;10297651;28;20118;-78
2023/12/29 15:46:21;;;;;;;23.73;11.40;;;;;;;;;;10317586;28;20375;-79
2023/12/29 15:51:22;;;;;;;22.60;11.67;;;;;;;;;;10323221;28;20038;-78
2023/12/29 15:56:24;;;;;;;21.33;11.40;;;;;;;;;;10318618;28;20034;-79
2023/12/29 16:01:29;;;;;;;24.77;12.00;;;;;;;;;;10299172;28;20044;-81
2023/12/29 16:06:30;;;;;;;26.23;12.40;;;;;;;;;;10300624;28;20054;-78
2023/12/29 16:11:31;;;;;;;21.77;10.50;;;;;;;;;;10307885;28;20034;-79
2023/12/29 16:16:32;;;;;;;24.10;12.17;;;;;;;;;;10312520;28;20525;-79
2023/12/29 16:21:37;;;;;;;22.73;12.13;;;;;;;;;;10324362;28;20145;-79
2023/12/29 16:26:40;;;;;;;21.77;12.00;;;;;;;;;;10323495;28;20034;-78
2023/12/29 16:31:41;;;;;;;20.73;11.50;;;;;;;;;;10303948;28;20524;-81
2023/12/29 16:36:54;;;;;;;18.07;10.73;;;;;;;;;;10284221;28;20058;-78
2023/12/29 16:41:56;;;;;;;16.37;9.27;;;;;;;;;;10269714;28;20026;-79
2023/12/29 16:46:57;;;;;;;16.87;8.87;;;;;;;;;;10283774;28;20030;-78
2023/12/29 16:51:58;;;;;;;18.67;10.03;;;;;;;;;;10278491;28;20039;-78
2023/12/29 16:56:59;;;;;;;19.97;9.40;;;;;;;;;;10279268;28;20177;-80
2023/12/29 17:02:06;;;;;;;16.47;9.27;;;;;;;;;;10284626;28;20030;-78
2023/12/29 17:07:09;;;;;;;18.67;9.93;;;;;;;;;;10277246;28;20094;-77
2023/12/29 17:12:10;;;;;;;17.73;9.33;;;;;;;;;;10281425;28;20038;-77
2023/12/29 17:17:11;;;;;;;17.17;8.37;;;;;;;;;;10276231;28;20496;-78
2023/12/29 17:22:19;;;;;;;17.47;9.00;;;;;;;;;;10280253;28;20062;-79
2023/12/29 17:27:20;;;;;;;16.50;8.17;;;;;;;;;;10286134;28;20475;-78
2023/12/29 17:32:51;;;;;;;16.23;8.27;;;;;;;;;;10280160;28;20113;-79
2023/12/29 17:37:52;;;;;;;14.97;7.90;;;;;;;;;;10280250;28;20067;-78
2023/12/29 17:42:53;;;;;;;14.33;7.50;;;;;;;;;;10278368;28;20109;-81
2023/12/29 17:47:54;;;;;;;15.90;7.67;;;;;;;;;;10277358;28;20046;-80
2023/12/29 17:53:01;;;;;;;18.60;8.03;;;;;;;;;;10279898;28;20044;-78
2023/12/29 17:58:02;;;;;;;12.53;7.10;;;;;;;;;;10281973;28;20031;-79
2023/12/29 18:03:05;;;;;;;16.37;7.23;;;;;;;;;;10277593;28;20039;-79
2023/12/29 18:08:09;;;;;;;13.77;7.33;;;;;;;;;;10274080;28;20065;-78
2023/12/29 18:13:10;;;;;;;15.30;8.03;;;;;;;;;;10278457;28;20045;-80
2023/12/29 18:18:11;;;;;;;14.77;8.23;;;;;;;;;;10272195;28;20031;-78
2023/12/29 18:23:12;;;;;;;15.33;8.00;;;;;;;;;;10279983;28;20033;-79
2023/12/29 18:28:13;;;;;;;16.13;8.10;;;;;;;;;;10271473;28;20468;-79
2023/12/29 18:33:14;;;;;;;17.47;8.83;;;;;;;;;;10303498;28;20030;-80
2023/12/29 18:38:16;;;;;;;18.17;9.20;;;;;;;;;;10312732;28;20464;-82
2023/12/29 18:43:18;;;;;;;18.50;8.63;;;;;;;;;;10315839;28;20088;-80
2023/12/29 18:48:20;;;;;;;14.10;8.57;;;;;;;;;;10326051;28;20049;-79
2023/12/29 18:53:24;;;;;;;16.03;8.63;;;;;;;;;;10333530;28;20030;-81
2023/12/29 18:58:25;;;;;;;16.10;8.50;;;;;;;;;;10340442;28;20029;-79
2023/12/29 19:03:26;;;;;;;18.77;9.40;;;;;;;;;;10324667;28;20049;-82
2023/12/29 19:08:28;;;;;;;21.87;10.37;;;;;;;;;;10317653;28;20042;-80
2023/12/29 19:13:30;;;;;;;18.33;8.83;;;;;;;;;;10330744;28;20030;-78
2023/12/29 19:18:31;;;;;;;18.00;8.60;;;;;;;;;;10320552;28;20039;-79
2023/12/29 19:23:32;;;;;;;19.50;9.07;;;;;;;;;;10324010;28;20034;-79
2023/12/29 19:28:33;;;;;;;22.90;10.63;;;;;;;;;;10320760;28;20066;-79
2023/12/29 19:33:34;;;;;;;20.90;9.27;;;;;;;;;;10302015;28;20116;-80
2023/12/29 19:38:40;;;;;;;20.97;10.47;;;;;;;;;;10317330;28;20059;-78
2023/12/29 19:43:41;;;;;;;18.15;9.63;;;;;;;;;;10320841;28;20583;-79
2023/12/29 19:48:43;;;;;;;19.87;9.07;;;;;;;;;;10309269;28;20122;-79
2023/12/29 19:53:44;;;;;;;22.07;10.20;;;;;;;;;;10328231;28;20113;-78
2023/12/29 19:58:45;;;;;;;19.93;9.73;;;;;;;;;;10328202;28;20895;-81
2023/12/29 20:09:25;;;;;;;20.47;9.87;;;;;;;;;;10321322;28;20050;-80
2023/12/29 21:21:38;;;;;;;13.20;6.37;;;;;;;;;;10007976;29;20038;-82
2023/12/29 21:32:37;;;;;;;11.07;6.63;;;;;;;;;;10392919;23;20558;-78
2023/12/29 21:37:44;;;;;;;13.17;6.83;;;;;;;;;;10009432;29;20026;-81
2023/12/29 21:42:46;;;;;;;14.10;7.20;;;;;;;;;;10009761;29;20044;-78
2023/12/29 21:47:48;;;;;;;13.43;6.30;;;;;;;;;;10009635;29;20052;-79
2023/12/29 21:52:49;;;;;;;14.93;6.10;;;;;;;;;;10010487;29;20395;-78
2023/12/29 21:57:50;;;;;;;16.23;7.23;;;;;;;;;;10009477;29;20038;-78
2023/12/29 22:02:51;;;;;;;15.00;7.43;;;;;;;;;;10010035;29;20098;-79
2023/12/29 22:07:52;;;;;;;9.10;5.23;;;;;;;;;;10009654;29;20642;-80
2023/12/29 22:12:53;;;;;;;10.13;5.37;;;;;;;;;;10009738;29;20113;-80
2023/12/29 22:17:54;;;;;;;11.43;6.13;;;;;;;;;;10009760;29;20037;-78
2023/12/29 22:22:56;;;;;;;7.80;4.67;;;;;;;;;;10009572;29;20045;-79
2023/12/29 22:27:57;;;;;;;7.47;4.53;;;;;;;;;;10009280;29;20780;-81
2023/12/29 22:32:58;;;;;;;8.40;4.77;;;;;;;;;;9996633;29;20070;-80
2023/12/29 22:38:00;;;;;;;9.50;4.90;;;;;;;;;;10008605;29;20042;-79
2023/12/29 22:43:01;;;;;;;9.83;4.73;;;;;;;;;;10008679;29;20501;-79
2023/12/29 22:48:03;;;;;;;6.73;4.33;;;;;;;;;;10008238;29;20056;-80
2023/12/29 22:53:04;;;;;;;8.73;4.80;;;;;;;;;;10013323;29;20035;-78
2023/12/29 22:58:05;;;;;;;8.90;4.83;;;;;;;;;;10024207;29;20050;-79
2023/12/29 23:03:06;;;;;;;10.77;5.33;;;;;;;;;;10016694;29;20491;-80
2023/12/29 23:08:07;;;;;;;10.10;6.00;;;;;;;;;;10016694;29;20478;-80
2023/12/29 23:13:09;;;;;;;11.10;5.97;;;;;;;;;;10016273;29;20578;-78
2023/12/29 23:18:10;;;;;;;12.27;6.13;;;;;;;;;;10008140;29;20038;-79
2023/12/29 23:23:11;;;;;;;10.80;5.43;;;;;;;;;;10012813;29;20030;-81
2023/12/29 23:28:12;;;;;;;11.00;5.43;;;;;;;;;;10016235;29;20045;-79
2023/12/29 23:33:13;;;;;;;8.90;5.53;;;;;;;;;;10013933;29;20094;-80
2023/12/29 23:38:17;;;;;;;11.07;6.57;;;;;;;;;;10015305;29;20116;-81
2023/12/29 23:43:18;;;;;;;9.50;5.20;;;;;;;;;;10015403;29;20799;-82
2023/12/29 23:48:19;;;;;;;9.47;5.00;;;;;;;;;;10015077;29;20053;-79
2023/12/29 23:53:20;;;;;;;11.37;5.43;;;;;;;;;;10014648;29;20546;-80
2023/12/29 23:58:21;;;;;;;12.50;6.30;;;;;;;;;;10014477;29;20042;-78
